Time;durP1;ratioP1;P1;durP2;ratioP2;P2;SDS_P1;SDS_P2;PMS_P1;PMS_P2;Temp;Humidity;BMP_temperature;BMP_pressure;BME280_temperature;BME280_humidity;BME280_pressure;Samples;Min_cycle;Max_cycle;Signal;HPM_P1;HPM_P2
2022/09/06 00:00:25;;;;;;;3.70;3.38;;;;;;;21.75;100.00;61586.06;5019165;28;20105;-76
2022/09/06 00:02:51;;;;;;;6.78;3.28;;;;;;;-144.47;100.00;61586.06;4997907;28;20394;-77
2022/09/06 00:05:17;;;;;;;6.45;3.67;;;;;;;-144.47;100.00;61586.06;5002272;28;20033;-78
2022/09/06 00:07:42;;;;;;;10.05;3.70;;;;;;;-144.47;100.00;61586.06;4981013;28;20133;-77
2022/09/06 00:10:08;;;;;;;3.83;3.30;;;;;;;-144.47;100.00;61586.06;5000001;28;20070;-76
2022/09/06 00:12:35;;;;;;;4.18;3.35;;;;;;;-144.47;100.00;61586.06;5001873;28;20041;-77
2022/09/06 00:15:01;;;;;;;4.32;3.08;;;;;;;-144.47;100.00;61586.06;4999249;28;20117;-75
2022/09/06 00:17:26;;;;;;;6.13;3.35;;;;;;;-144.47;100.00;61586.06;5002475;28;20121;-77
2022/09/06 00:19:52;;;;;;;6.60;3.13;;;;;;;-144.47;100.00;61586.06;5002600;28;20102;-76
2022/09/06 00:22:17;;;;;;;4.47;3.03;;;;;;;-144.47;100.00;61586.06;5005375;28;20413;-76
2022/09/06 00:24:43;;;;;;;5.75;3.13;;;;;;;22.56;100.00;61586.06;5001342;28;20052;-77
2022/09/06 00:27:08;;;;;;;6.25;3.00;;;;;;;-144.47;100.00;61586.06;4998856;28;20077;-78
2022/09/06 00:29:34;;;;;;;6.53;3.70;;;;;;;-144.47;100.00;61586.06;4998895;28;20382;-78
2022/09/06 00:32:00;;;;;;;3.78;3.35;;;;;;;-144.47;100.00;61586.06;5001690;28;20034;-79
2022/09/06 00:34:26;;;;;;;4.55;2.88;;;;;;;-144.47;100.00;61586.06;5001455;28;20077;-79
2022/09/06 00:36:51;;;;;;;4.65;2.90;;;;;;;-144.47;100.00;61586.06;5002506;28;20050;-79
2022/09/06 00:39:17;;;;;;;5.80;3.15;;;;;;;-144.47;100.00;61586.06;5001780;28;20058;-78
2022/09/06 00:41:42;;;;;;;4.82;3.65;;;;;;;-144.47;100.00;61586.06;5002107;28;20033;-78
2022/09/06 00:44:08;;;;;;;4.43;3.20;;;;;;;-144.47;100.00;61586.06;5001635;28;20027;-78
2022/09/06 00:46:35;;;;;;;5.15;3.70;;;;;;;-144.47;100.00;61586.06;5004252;28;20030;-78
2022/09/06 00:49:12;;;;;;;4.88;4.32;;;;;;;-144.47;100.00;61586.06;5001405;28;20475;-76
2022/09/06 00:51:38;;;;;;;5.50;4.30;;;;;;;-144.47;100.00;61586.06;5002283;28;20149;-77
2022/09/06 00:54:06;;;;;;;6.57;4.30;;;;;;;-144.47;100.00;61586.06;5001813;28;20041;-76
2022/09/06 00:56:36;;;;;;;6.32;4.53;;;;;;;-144.47;100.00;61586.06;5002514;28;20050;-78
2022/09/06 00:59:02;;;;;;;5.28;4.82;;;;;;;20.70;100.00;61586.06;4998406;28;20129;-78
2022/09/06 01:01:27;;;;;;;8.20;4.95;;;;;;;-144.47;100.00;61586.06;4998773;28;20036;-78
2022/09/06 01:03:53;;;;;;;8.15;4.80;;;;;;;-144.47;100.00;61586.06;4996944;28;20022;-78
2022/09/06 01:06:19;;;;;;;5.00;4.50;;;;;;;-144.47;100.00;61586.06;4999642;28;20037;-79
2022/09/06 01:09:06;;;;;;;6.25;4.70;;;;;;;-144.47;100.00;61586.06;4996521;28;20493;-78
2022/09/06 01:11:47;;;;;;;5.05;4.53;;;;;;;-144.47;100.00;61586.06;5001567;28;20946;-77
2022/09/06 01:14:17;;;;;;;;;;;;;;;-144.47;100.00;61586.06;5000377;28;20039;-78
2022/09/06 01:16:49;;;;;;;8.50;5.18;;;;;;;-144.47;100.00;61586.06;5001774;28;19917;-79
2022/09/06 01:19:39;;;;;;;6.68;4.30;;;;;;;-144.47;100.00;61586.06;5000777;28;20048;-76
2022/09/06 01:22:42;;;;;;;6.75;4.63;;;;;;;-144.47;100.00;61586.06;5014046;28;20650;-78
2022/09/06 01:25:37;;;;;;;4.55;3.75;;;;;;;-144.47;100.00;61586.06;5000986;28;20031;-79
2022/09/06 01:28:14;;;;;;;5.30;4.18;;;;;;;-144.47;100.00;61586.06;4998378;28;20042;-78
2022/09/06 01:30:49;;;;;;;5.10;4.18;;;;;;;-144.47;100.00;61586.06;4999216;28;20053;-78
2022/09/06 01:33:15;;;;;;;7.00;4.78;;;;;;;-144.47;100.00;61586.06;4999206;28;20054;-78
2022/09/06 01:36:02;;;;;;;5.20;4.43;;;;;;;-144.47;100.00;61586.06;5000245;28;20030;-78
2022/09/06 01:38:28;;;;;;;5.93;4.25;;;;;;;187.31;100.00;61586.06;4999703;28;20444;-78
2022/09/06 01:40:53;;;;;;;4.90;4.43;;;;;;;20.61;100.00;61586.06;5003433;28;20034;-77
2022/09/06 01:43:30;;;;;;;5.90;3.88;;;;;;;20.36;100.00;61586.06;5005004;28;20135;-78
2022/09/06 01:46:30;;;;;;;8.68;4.43;;;;;;;-144.47;100.00;61586.06;5001387;28;20087;-78
2022/09/06 01:49:20;;;;;;;8.20;4.38;;;;;;;-144.47;100.00;61586.06;5004764;28;20117;-79
2022/09/06 01:52:13;;;;;;;7.72;5.10;;;;;;;-144.47;100.00;61586.06;5005072;28;20093;-78
2022/09/06 01:54:53;;;;;;;5.97;4.63;;;;;;;-144.47;100.00;61586.06;5004040;28;20573;-79
2022/09/06 01:57:40;;;;;;;8.90;4.25;;;;;;;-144.47;100.00;61586.06;5005806;28;20395;-78
2022/09/06 02:00:16;;;;;;;5.32;4.32;;;;;;;21.26;100.00;61586.06;5004040;28;20030;-78
2022/09/06 02:03:06;;;;;;;5.93;4.57;;;;;;;-144.47;100.00;61586.06;5003186;28;20030;-76
2022/09/06 02:05:57;;;;;;;5.00;4.50;;;;;;;187.31;100.00;61586.06;5002584;28;20040;-79
2022/09/06 02:08:28;;;;;;;;;;;;;;;20.36;100.00;61586.06;4996056;28;20056;-78
2022/09/06 02:10:56;;;;;;;;;;;;;;;187.31;100.00;61586.06;5003875;28;19917;-79
2022/09/06 02:13:24;;;;;;;5.18;4.15;;;;;;;187.31;100.00;61586.06;5003149;28;19925;-79
2022/09/06 02:16:01;;;;;;;4.80;4.10;;;;;;;-144.47;100.00;61586.06;5004603;28;20566;-77
2022/09/06 02:18:46;;;;;;;4.68;3.97;;;;;;;-144.47;100.00;61586.06;5004182;28;20026;-79
2022/09/06 02:21:16;;;;;;;5.05;4.68;;;;;;;-144.47;100.00;61586.06;5003004;28;20049;-79
2022/09/06 02:23:45;;;;;;;6.43;4.68;;;;;;;187.31;100.00;61586.06;5006091;28;20026;-79
2022/09/06 02:26:16;;;;;;;5.70;4.45;;;;;;;21.26;100.00;61586.06;5004215;28;20044;-80
2022/09/06 02:28:42;;;;;;;7.68;5.00;;;;;;;187.31;100.00;61586.06;5001722;28;20092;-78
2022/09/06 02:31:25;;;;;;;6.90;5.20;;;;;;;-144.47;100.00;61586.06;5003619;28;20456;-79
2022/09/06 02:33:50;;;;;;;8.60;5.55;;;;;;;-144.47;100.00;61586.06;5004913;28;20034;-80
2022/09/06 02:36:17;;;;;;;7.22;5.32;;;;;;;-144.47;100.00;61586.06;5004052;28;20388;-80
2022/09/06 02:38:44;;;;;;;6.28;5.47;;;;;;;-144.47;100.00;61586.06;5002883;28;20030;-79
2022/09/06 02:41:12;;;;;;;6.18;5.53;;;;;;;-144.47;100.00;61586.06;5003342;28;20471;-80
2022/09/06 02:43:39;;;;;;;6.75;5.13;;;;;;;-144.47;100.00;61586.06;5003542;28;20030;-80
2022/09/06 02:46:04;;;;;;;6.80;5.05;;;;;;;20.61;100.00;61586.06;5004184;28;20046;-78
2022/09/06 02:48:30;;;;;;;6.28;5.65;;;;;;;187.31;100.00;61586.06;5003283;28;20045;-79
2022/09/06 02:50:55;;;;;;;6.35;5.53;;;;;;;-144.47;100.00;61586.06;5004559;28;20116;-79
2022/09/06 02:53:21;;;;;;;6.80;5.13;;;;;;;-144.47;100.00;61586.06;4995899;28;20479;-79
2022/09/06 02:55:47;;;;;;;6.10;5.53;;;;;;;187.31;100.00;61586.06;5004247;28;20062;-79
2022/09/06 02:58:14;;;;;;;6.32;5.20;;;;;;;21.26;100.00;61586.06;5004990;28;20030;-79
2022/09/06 03:00:39;;;;;;;5.72;5.25;;;;;;;21.26;100.00;61586.06;5004001;28;20412;-78
2022/09/06 03:03:05;;;;;;;6.03;5.45;;;;;;;-144.47;100.00;61586.06;5000855;28;20041;-80
2022/09/06 03:05:31;;;;;;;5.57;4.82;;;;;;;20.61;100.00;61586.06;5004208;28;20041;-79
2022/09/06 03:07:57;;;;;;;5.50;5.10;;;;;;;-144.47;100.00;61586.06;5001992;28;20057;-80
2022/09/06 03:10:23;;;;;;;5.75;4.97;;;;;;;21.26;100.00;61586.06;5005228;28;20034;-79
2022/09/06 03:12:49;;;;;;;8.45;5.20;;;;;;;21.26;100.00;61586.06;5003534;28;20471;-80
2022/09/06 03:15:15;;;;;;;7.80;5.13;;;;;;;187.31;100.00;61586.06;5003819;28;20042;-80
2022/09/06 03:17:41;;;;;;;7.40;6.68;;;;;;;-144.47;100.00;61586.06;5003916;28;20034;-79
2022/09/06 03:20:08;;;;;;;5.28;4.78;;;;;;;19.90;100.00;61586.06;5004227;28;20511;-79
2022/09/06 03:22:35;;;;;;;5.53;5.07;;;;;;;-144.47;100.00;61586.06;5005221;28;20028;-76
2022/09/06 03:25:00;;;;;;;5.70;5.20;;;;;;;19.97;100.00;61586.06;5001798;28;20109;-80
2022/09/06 03:27:26;;;;;;;7.60;5.50;;;;;;;19.97;100.00;61586.06;5005288;28;20113;-79
2022/09/06 03:29:51;;;;;;;6.22;5.55;;;;;;;-144.47;100.00;61586.06;4996702;28;20056;-78
2022/09/06 03:32:17;;;;;;;6.60;5.38;;;;;;;-144.47;100.00;61586.06;5006789;28;20037;-77
2022/09/06 03:34:42;;;;;;;6.85;6.20;;;;;;;187.31;100.00;61586.06;5001275;28;20034;-77
2022/09/06 03:37:08;;;;;;;6.45;5.93;;;;;;;-144.47;100.00;61586.06;5002171;28;20101;-78
2022/09/06 03:39:34;;;;;;;6.82;6.22;;;;;;;187.31;100.00;61586.06;5002784;28;20035;-76
2022/09/06 03:42:00;;;;;;;10.00;6.20;;;;;;;-144.47;100.00;61586.06;5002525;28;20125;-79
2022/09/06 03:44:25;;;;;;;7.55;5.43;;;;;;;-144.47;100.00;61586.06;5003281;28;20114;-78
2022/09/06 03:46:51;;;;;;;6.40;5.82;;;;;;;-144.47;100.00;61586.06;4999186;28;20130;-77
2022/09/06 03:49:17;;;;;;;6.22;5.65;;;;;;;-144.47;100.00;61586.06;5010319;28;20112;-77
2022/09/06 03:51:42;;;;;;;7.80;5.85;;;;;;;-144.47;100.00;61586.06;5018980;28;20035;-78
2022/09/06 03:54:08;;;;;;;6.97;5.47;;;;;;;-144.47;100.00;61586.06;5017168;28;20057;-77
2022/09/06 03:56:33;;;;;;;8.75;5.15;;;;;;;-144.47;100.00;61586.06;5016947;28;20049;-77
2022/09/06 03:58:59;;;;;;;6.72;5.22;;;;;;;-144.47;100.00;61586.06;5015739;28;20034;-79
2022/09/06 04:01:24;;;;;;;5.22;4.82;;;;;;;-144.47;100.00;61586.06;4998479;28;20041;-78
2022/09/06 04:03:50;;;;;;;5.03;4.63;;;;;;;18.51;100.00;61586.06;4997362;28;20030;-79
2022/09/06 04:06:15;;;;;;;5.30;4.80;;;;;;;-144.47;100.00;61586.06;5002020;28;20037;-79
2022/09/06 04:08:41;;;;;;;6.65;5.43;;;;;;;18.67;100.00;61586.06;5033250;28;20030;-78
2022/09/06 04:11:06;;;;;;;6.00;5.22;;;;;;;-144.47;100.00;61586.06;5003128;28;20509;-77
2022/09/06 04:13:33;;;;;;;6.95;6.28;;;;;;;-144.47;100.00;61586.06;5002353;28;20066;-79
2022/09/06 04:15:59;;;;;;;8.43;5.88;;;;;;;-144.47;100.00;61586.06;5003160;28;20038;-78
2022/09/06 04:18:25;;;;;;;7.93;6.35;;;;;;;-144.47;100.00;61586.06;5003439;28;20040;-78
2022/09/06 04:20:53;;;;;;;6.50;5.80;;;;;;;-144.47;100.00;61586.06;5001617;28;20030;-78
2022/09/06 04:23:19;;;;;;;6.53;6.00;;;;;;;-144.47;100.00;61586.06;5002556;28;20386;-78
2022/09/06 04:25:46;;;;;;;8.60;6.10;;;;;;;-144.47;100.00;61586.06;5001457;28;20041;-78
2022/09/06 04:28:12;;;;;;;9.30;6.10;;;;;;;-144.47;100.00;61586.06;5000007;28;20049;-78
2022/09/06 04:30:37;;;;;;;9.45;6.38;;;;;;;-144.47;100.00;61586.06;4999205;28;20034;-78
2022/09/06 04:33:03;;;;;;;7.95;6.50;;;;;;;-144.47;100.00;61586.06;5004800;28;20136;-79
2022/09/06 04:35:28;;;;;;;7.82;6.15;;;;;;;-144.47;100.00;61586.06;4999356;28;20121;-79
2022/09/06 04:37:54;;;;;;;6.60;6.00;;;;;;;-144.47;100.00;61586.06;5002128;28;20368;-80
2022/09/06 04:40:19;;;;;;;6.90;6.30;;;;;;;-144.47;100.00;61586.06;5000571;28;20093;-79
2022/09/06 04:42:44;;;;;;;7.90;6.10;;;;;;;19.97;100.00;61586.06;5004561;28;20049;-78
2022/09/06 04:45:10;;;;;;;7.38;6.60;;;;;;;-144.47;100.00;61586.06;5001716;28;20058;-78
2022/09/06 04:47:35;;;;;;;9.40;6.00;;;;;;;-144.47;100.00;61586.06;5000552;28;20085;-77
2022/09/06 04:50:01;;;;;;;8.13;5.63;;;;;;;18.63;100.00;61586.06;5001393;28;20034;-77
2022/09/06 04:52:26;;;;;;;7.38;6.38;;;;;;;-144.47;100.00;61586.06;5000706;28;20033;-85
2022/09/06 04:54:52;;;;;;;6.30;5.70;;;;;;;-144.47;100.00;61586.06;5003657;28;20034;-86
2022/09/06 04:57:17;;;;;;;7.05;6.00;;;;;;;-144.47;100.00;61586.06;5003087;28;20026;-85
2022/09/06 04:59:43;;;;;;;6.32;5.80;;;;;;;-144.47;100.00;61586.06;5005647;28;20080;-84
2022/09/06 05:02:08;;;;;;;6.50;5.95;;;;;;;-144.47;100.00;61586.06;5014451;28;20129;-85
2022/09/06 05:04:33;;;;;;;8.10;6.53;;;;;;;-144.47;100.00;61586.06;4992568;28;20471;-86
2022/09/06 05:07:03;;;;;;;7.13;6.50;;;;;;;-144.47;100.00;61586.06;4995665;28;20069;-84
2022/09/06 05:09:30;;;;;;;7.50;6.20;;;;;;;-144.47;100.00;61586.06;4995297;28;20522;-85
2022/09/06 05:11:56;;;;;;;6.43;5.75;;;;;;;-144.47;100.00;61586.06;5002843;28;20084;-84
2022/09/06 05:14:22;;;;;;;6.53;5.82;;;;;;;-144.47;100.00;61586.06;4999680;28;20434;-85
2022/09/06 05:16:48;;;;;;;6.50;5.90;;;;;;;-144.47;100.00;61586.06;5001285;28;20018;-81
2022/09/06 05:19:14;;;;;;;6.78;6.15;;;;;;;-144.47;100.00;61586.06;5001148;28;20042;-82
2022/09/06 05:21:40;;;;;;;7.10;6.45;;;;;;;-144.47;100.00;61586.06;5001601;28;20053;-83
2022/09/06 05:24:05;;;;;;;7.97;7.28;;;;;;;-144.47;100.00;61586.06;5001690;28;20721;-84
2022/09/06 05:26:31;;;;;;;8.38;7.32;;;;;;;187.31;100.00;61586.06;4996797;28;20113;-83
2022/09/06 05:28:56;;;;;;;11.70;7.60;;;;;;;187.31;100.00;61586.06;4998122;28;20117;-84
2022/09/06 05:31:30;;;;;;;8.52;7.82;;;;;;;-144.47;100.00;61586.06;5014225;28;20081;-85
2022/09/06 05:33:57;;;;;;;9.05;7.65;;;;;;;-144.47;100.00;61586.06;4999063;28;20044;-80
2022/09/06 05:36:24;;;;;;;11.80;7.78;;;;;;;-144.47;100.00;61586.06;4997674;28;20042;-86
2022/09/06 05:38:50;;;;;;;7.82;7.07;;;;;;;-144.47;100.00;61586.06;5000779;28;20041;-87
2022/09/06 05:41:16;;;;;;;8.40;7.25;;;;;;;-144.47;100.00;61586.06;5000251;28;20074;-82
2022/09/06 05:43:41;;;;;;;9.68;7.28;;;;;;;-144.47;100.00;61586.06;5002203;28;20506;-82
2022/09/06 05:46:08;;;;;;;11.65;8.18;;;;;;;-144.47;100.00;61586.06;5001537;28;20069;-82
2022/09/06 05:48:33;;;;;;;12.45;7.43;;;;;;;-144.47;100.00;61586.06;5000882;28;20676;-82
2022/09/06 05:51:07;;;;;;;7.93;7.28;;;;;;;-144.47;100.00;61586.06;4997978;28;20046;-83
2022/09/06 05:53:35;;;;;;;8.35;6.90;;;;;;;-144.47;100.00;61586.06;5002124;28;20041;-81
2022/09/06 05:56:01;;;;;;;7.93;7.22;;;;;;;-144.47;100.00;61586.06;4998505;28;20096;-82
2022/09/06 05:58:27;;;;;;;11.07;7.00;;;;;;;-144.47;100.00;61586.06;5003632;28;20033;-83
2022/09/06 06:01:06;;;;;;;7.85;7.15;;;;;;;-144.47;100.00;61586.06;4999811;28;20027;-82
2022/09/06 06:03:32;;;;;;;12.90;7.30;;;;;;;-144.47;100.00;61586.06;5001153;28;20023;-82
2022/09/06 06:05:57;;;;;;;10.43;8.18;;;;;;;-144.47;100.00;61586.06;5019048;28;20091;-83
2022/09/06 06:08:23;;;;;;;7.85;7.15;;;;;;;-144.47;100.00;61586.06;5000906;28;20037;-84
2022/09/06 06:10:48;;;;;;;10.70;7.43;;;;;;;-144.47;100.00;61586.06;4999533;28;20030;-81
2022/09/06 06:13:14;;;;;;;9.27;8.35;;;;;;;-144.47;100.00;61586.06;5033162;28;20030;-81
2022/09/06 06:15:39;;;;;;;10.27;9.30;;;;;;;-144.47;100.00;61586.06;5001098;28;20040;-82
2022/09/06 06:18:05;;;;;;;10.60;8.90;;;;;;;187.31;100.00;61586.06;4999439;28;20038;-84
2022/09/06 06:20:30;;;;;;;10.10;8.85;;;;;;;-144.47;100.00;61586.06;4998374;28;20038;-84
2022/09/06 06:22:56;;;;;;;11.48;9.13;;;;;;;-144.47;100.00;61586.06;5002329;28;20129;-86
2022/09/06 06:25:25;;;;;;;9.70;8.85;;;;;;;-144.47;100.00;61586.06;5001813;28;20037;-83
2022/09/06 06:27:51;;;;;;;13.98;10.82;;;;;;;-144.47;100.00;61586.06;5001879;28;20026;-84
2022/09/06 06:30:16;;;;;;;10.85;9.70;;;;;;;-144.47;100.00;61586.06;5004497;28;20068;-83
2022/09/06 06:32:42;;;;;;;14.27;10.35;;;;;;;-144.47;100.00;61586.06;5006273;28;20037;-83
2022/09/06 06:35:09;;;;;;;14.05;9.65;;;;;;;-144.47;100.00;61586.06;5005748;28;20536;-84
2022/09/06 06:37:34;;;;;;;10.35;9.45;;;;;;;-144.47;100.00;61586.06;5003862;28;20092;-85
2022/09/06 06:40:04;;;;;;;11.15;9.02;;;;;;;-144.47;100.00;61586.06;5004173;28;20046;-84
2022/09/06 06:42:29;;;;;;;11.05;9.95;;;;;;;-144.47;100.00;61586.06;5003935;28;20033;-84
2022/09/06 06:44:56;;;;;;;10.73;9.70;;;;;;;19.97;100.00;61586.06;5005337;28;20033;-83
2022/09/06 06:47:21;;;;;;;10.68;9.13;;;;;;;187.31;100.00;61586.06;4996394;28;20087;-81
2022/09/06 06:49:47;;;;;;;12.63;9.88;;;;;;;187.31;100.00;61586.06;5037726;28;20037;-83
2022/09/06 06:52:13;;;;;;;14.23;11.38;;;;;;;-144.47;100.00;61586.06;5001237;28;20201;-80
2022/09/06 06:54:38;;;;;;;13.95;11.25;;;;;;;187.31;100.00;61586.06;5000864;28;20467;-79
2022/09/06 06:57:04;;;;;;;13.25;11.85;;;;;;;187.31;100.00;61586.06;4995859;28;20038;-80
2022/09/06 06:59:30;;;;;;;16.63;12.52;;;;;;;-144.47;100.00;61586.06;5005202;28;20041;-82
2022/09/06 07:01:56;;;;;;;12.30;10.55;;;;;;;-144.47;100.00;61586.06;5000948;28;20033;-83
2022/09/06 07:04:21;;;;;;;14.13;12.20;;;;;;;21.26;100.00;61586.06;5002909;28;20433;-82
2022/09/06 07:06:53;;;;;;;13.70;11.85;;;;;;;-144.47;100.00;61586.06;5002922;28;20059;-82
2022/09/06 07:09:19;;;;;;;15.02;11.82;;;;;;;-144.47;100.00;61586.06;5000178;28;20026;-82
2022/09/06 07:11:47;;;;;;;14.02;12.15;;;;;;;-144.47;100.00;61586.06;4996636;28;20042;-82
2022/09/06 07:14:13;;;;;;;14.73;12.93;;;;;;;-144.47;100.00;61586.06;5000888;28;20093;-83
2022/09/06 07:16:39;;;;;;;13.88;11.95;;;;;;;-144.47;100.00;61586.06;4983877;28;20086;-87
2022/09/06 07:19:05;;;;;;;15.20;13.77;;;;;;;-144.47;100.00;61586.06;5000072;28;20494;-83
2022/09/06 07:21:30;;;;;;;14.07;12.73;;;;;;;-144.47;100.00;61586.06;4993687;28;20042;-83
2022/09/06 07:23:56;;;;;;;19.17;13.50;;;;;;;-144.47;100.00;61586.06;4990285;28;20038;-82
2022/09/06 07:26:27;;;;;;;15.88;13.93;;;;;;;-144.47;100.00;61586.06;5005330;28;20037;-81
2022/09/06 07:28:54;;;;;;;14.07;12.82;;;;;;;-144.47;100.00;61586.06;4997244;28;20751;-85
2022/09/06 07:31:20;;;;;;;16.42;13.70;;;;;;;-144.47;100.00;61586.06;5006663;28;20083;-86
2022/09/06 07:33:46;;;;;;;14.57;13.07;;;;;;;-144.47;100.00;61586.06;4985750;28;20105;-85
2022/09/06 07:36:11;;;;;;;13.55;12.35;;;;;;;-144.47;100.00;61586.06;4995070;28;20113;-87
2022/09/06 07:38:37;;;;;;;13.23;11.82;;;;;;;-144.47;100.00;61586.06;4993608;28;20364;-83
2022/09/06 07:41:05;;;;;;;15.02;12.77;;;;;;;-144.47;100.00;61586.06;4990483;28;20454;-88
2022/09/06 07:43:32;;;;;;;15.70;12.13;;;;;;;-144.47;100.00;61586.06;4993474;28;20038;-89
2022/09/06 07:46:04;;;;;;;12.18;10.98;;;;;;;-144.47;100.00;61586.06;5039386;28;20031;-84
2022/09/06 07:48:31;;;;;;;12.48;11.38;;;;;;;-144.47;100.00;61586.06;5033792;28;20046;-82
2022/09/06 07:51:11;;;;;;;12.50;11.40;;;;;;;-144.47;100.00;61586.06;5007843;28;20034;-82
2022/09/06 07:53:38;;;;;;;12.68;11.50;;;;;;;-144.47;100.00;61586.06;5000212;28;20043;-83
2022/09/06 07:56:06;;;;;;;13.27;11.75;;;;;;;22.06;100.00;100092.06;4997765;28;20081;-82
2022/09/06 07:58:32;;;;;;;13.48;12.27;;;;;;;-144.47;100.00;61586.06;4992039;28;20037;-84
2022/09/06 08:01:16;;;;;;;13.05;11.65;;;;;;;187.31;100.00;61586.06;4986567;28;20065;-78
2022/09/06 08:03:42;;;;;;;12.30;11.10;;;;;;;-144.47;100.00;61586.06;4986802;28;20058;-80
2022/09/06 08:06:08;;;;;;;13.07;11.77;;;;;;;-144.47;100.00;61586.06;4990650;28;20430;-78
2022/09/06 08:08:34;;;;;;;14.02;12.43;;;;;;;-144.47;100.00;61586.06;4991879;28;20022;-79
2022/09/06 08:10:59;;;;;;;11.98;10.93;;;;;;;187.31;100.00;61586.06;4992419;28;20034;-78
2022/09/06 08:13:25;;;;;;;15.63;14.02;;;;;;;-144.47;100.00;61586.06;4988252;28;20030;-78
2022/09/06 08:16:01;;;;;;;14.02;12.75;;;;;;;-144.47;100.00;61586.06;4989079;28;20459;-79
2022/09/06 08:18:26;;;;;;;13.18;11.88;;;;;;;-144.47;100.00;61586.06;4989529;28;20449;-84
2022/09/06 08:20:52;;;;;;;15.68;14.18;;;;;;;-144.47;100.00;61586.06;4991665;28;20035;-90
2022/09/06 08:23:17;;;;;;;15.82;14.18;;;;;;;-144.47;100.00;61586.06;4990814;28;20033;-79
2022/09/06 08:25:43;;;;;;;17.90;14.57;;;;;;;-144.47;100.00;61586.06;4987264;28;20031;-82
2022/09/06 08:28:08;;;;;;;15.02;13.60;;;;;;;-144.47;100.00;61586.06;4989525;28;20034;-86
2022/09/06 08:30:34;;;;;;;16.52;14.57;;;;;;;-144.47;100.00;61586.06;4987941;28;20057;-87
2022/09/06 08:33:00;;;;;;;15.18;13.55;;;;;;;-144.47;100.00;61586.06;4987198;28;20035;-88
2022/09/06 08:35:25;;;;;;;17.85;16.00;;;;;;;-144.47;100.00;61586.06;4993250;28;20501;-88
2022/09/06 08:37:52;;;;;;;15.30;13.57;;;;;;;-144.47;100.00;61586.06;4996973;28;20022;-84
2022/09/06 08:40:22;;;;;;;14.77;13.30;;;;;;;-144.47;100.00;61586.06;4994505;28;20404;-84
2022/09/06 08:42:48;;;;;;;;;;;;;;;-144.47;100.00;61586.06;4992932;28;20037;-83
2022/09/06 08:45:18;;;;;;;15.23;13.65;;;;;;;-144.47;100.00;61586.06;4993623;28;19929;-84
2022/09/06 08:47:44;;;;;;;23.52;15.50;;;;;;;23.33;100.00;61586.06;4994191;28;20035;-89
2022/09/06 08:50:09;;;;;;;16.85;14.93;;;;;;;-144.47;100.00;61586.06;4992381;28;20047;-89
2022/09/06 08:52:45;;;;;;;16.20;14.45;;;;;;;-144.47;100.00;61586.06;4994771;28;20129;-89
2022/09/06 08:55:33;;;;;;;16.15;14.43;;;;;;;-144.47;100.00;61586.06;4989757;28;20088;-85
2022/09/06 08:57:58;;;;;;;18.70;15.77;;;;;;;-144.47;100.00;61586.06;4998636;28;20077;-83
2022/09/06 09:00:24;;;;;;;14.20;12.77;;;;;;;-144.47;100.00;61586.06;4988759;28;20053;-80
2022/09/06 09:03:15;;;;;;;14.40;13.10;;;;;;;-144.47;100.00;61586.06;4992019;28;20042;-81
2022/09/06 09:05:42;;;;;;;17.40;13.02;;;;;;;-144.47;100.00;61586.06;4995828;28;20057;-78
2022/09/06 09:08:22;;;;;;;15.25;13.60;;;;;;;104.25;100.00;61586.06;4993538;28;20050;-83
2022/09/06 09:10:53;;;;;;;16.85;14.63;;;;;;;23.82;100.00;61586.06;4984883;28;20063;-77
2022/09/06 09:13:48;;;;;;;14.35;12.95;;;;;;;104.25;100.00;61586.06;4999856;28;20835;-77
2022/09/06 09:16:14;;;;;;;16.05;14.30;;;;;;;62.74;100.00;61586.06;4996391;28;20407;-78
2022/09/06 09:18:46;;;;;;;16.20;13.48;;;;;;;23.98;100.00;61586.06;4998922;28;20034;-78
2022/09/06 09:21:14;;;;;;;14.77;12.80;;;;;;;-144.47;100.00;61586.06;4999012;28;20034;-78
2022/09/06 09:23:39;;;;;;;13.45;11.98;;;;;;;104.25;100.00;61586.06;5011374;28;20113;-77
2022/09/06 09:26:10;;;;;;;12.65;11.57;;;;;;;24.17;100.00;100062.94;5003203;28;20518;-78
2022/09/06 09:28:35;;;;;;;13.80;12.45;;;;;;;104.25;100.00;61586.06;5001259;28;20056;-77
2022/09/06 09:31:01;;;;;;;11.88;10.65;;;;;;;104.25;100.00;61586.06;5000823;28;20492;-79
2022/09/06 09:33:35;;;;;;;12.25;10.82;;;;;;;25.15;100.00;61586.06;4999358;28;20105;-78
2022/09/06 09:36:07;;;;;;;12.60;11.35;;;;;;;24.34;100.00;61586.06;4996672;28;20042;-78
2022/09/06 09:38:41;;;;;;;9.88;9.10;;;;;;;-144.47;100.00;61586.06;4996006;28;20428;-78
2022/09/06 09:41:07;;;;;;;9.15;8.25;;;;;;;-144.47;100.00;61586.06;4998280;28;20038;-77
2022/09/06 09:43:36;;;;;;;9.18;7.88;;;;;;;-144.47;100.00;61586.06;5001056;28;20479;-78
2022/09/06 09:46:23;;;;;;;8.32;7.38;;;;;;;-144.47;100.00;61586.06;5001648;28;20033;-78
2022/09/06 09:49:11;;;;;;;13.57;8.15;;;;;;;-144.47;100.00;61586.06;5001047;28;20117;-78
2022/09/06 09:51:42;;;;;;;8.85;8.00;;;;;;;-144.47;100.00;61586.06;4996194;28;20045;-78
2022/09/06 09:54:10;;;;;;;7.90;7.30;;;;;;;-144.47;100.00;61586.06;4997729;28;20066;-77
2022/09/06 09:56:37;;;;;;;7.60;7.00;;;;;;;-144.47;100.00;61586.06;5000770;28;20108;-77
2022/09/06 09:59:15;;;;;;;8.20;7.45;;;;;;;24.97;100.00;61586.06;4997628;28;20046;-78
2022/09/06 10:01:40;;;;;;;8.00;7.20;;;;;;;-144.47;100.00;61586.06;5000373;28;20038;-78
2022/09/06 10:04:08;;;;;;;9.05;7.80;;;;;;;-144.47;100.00;61586.06;5003994;28;20038;-78
2022/09/06 10:06:34;;;;;;;12.05;7.97;;;;;;;-144.47;100.00;61586.06;5002181;28;20045;-78
2022/09/06 10:09:18;;;;;;;9.15;8.32;;;;;;;-144.47;100.00;61586.06;5003215;28;20034;-79
2022/09/06 10:11:56;;;;;;;8.07;7.28;;;;;;;26.45;100.00;61586.06;5003763;28;20116;-78
2022/09/06 10:14:29;;;;;;;8.57;7.07;;;;;;;-144.47;100.00;61586.06;5005694;28;20031;-80
2022/09/06 10:16:56;;;;;;;7.80;7.20;;;;;;;-144.47;100.00;61586.06;4998002;28;20368;-78
2022/09/06 10:19:34;;;;;;;7.50;6.10;;;;;;;-144.47;100.00;61586.06;5002780;28;20037;-78
2022/09/06 10:22:08;;;;;;;6.43;5.88;;;;;;;-144.47;100.00;61586.06;5003938;28;20104;-78
2022/09/06 10:24:58;;;;;;;10.00;6.18;;;;;;;-144.47;100.00;61586.06;5002473;28;20033;-78
2022/09/06 10:27:27;;;;;;;7.38;6.65;;;;;;;-144.47;100.00;61586.06;5013302;28;20137;-78
2022/09/06 10:30:01;;;;;;;8.93;6.57;;;;;;;-144.47;100.00;61586.06;5001059;28;20118;-79
2022/09/06 10:32:44;;;;;;;9.05;6.30;;;;;;;-144.47;100.00;61586.06;5003924;28;20030;-79
2022/09/06 10:35:36;;;;;;;6.63;6.03;;;;;;;-144.47;100.00;61586.06;5001593;28;20054;-78
2022/09/06 10:38:23;;;;;;;12.20;6.00;;;;;;;-144.47;100.00;61586.06;5005868;28;20030;-78
2022/09/06 10:41:31;;;;;;;6.10;5.45;;;;;;;-144.47;100.00;61586.06;4999510;28;20034;-78
2022/09/06 10:44:35;;;;;;;5.40;4.90;;;;;;;-144.47;100.00;61586.06;5000648;28;19943;-79
2022/09/06 10:47:13;;;;;;;5.15;4.75;;;;;;;-144.47;100.00;61586.06;5002583;28;20037;-80
2022/09/06 10:49:53;;;;;;;6.05;5.00;;;;;;;-144.47;100.00;61586.06;5002968;28;20042;-79
2022/09/06 10:52:32;;;;;;;5.95;4.85;;;;;;;-144.47;100.00;61586.06;5002775;28;20037;-77
2022/09/06 10:55:03;;;;;;;5.47;4.70;;;;;;;-144.47;100.00;61586.06;5004798;28;20347;-78
2022/09/06 10:57:42;;;;;;;;;;;;;;;-144.47;100.00;61586.06;5003603;28;20029;-78
2022/09/06 11:00:12;;;;;;;;;;;;;;;-144.47;100.00;61586.06;5002613;28;19921;-77
2022/09/06 11:02:42;;;;;;;;;;;;;;;-144.47;100.00;61586.06;5002193;28;19917;-77
2022/09/06 11:05:10;;;;;;;;;;;;;;;-144.47;100.00;61586.06;5001952;28;19917;-78
2022/09/06 11:07:48;;;;;;;;;;;;;;;-144.47;100.00;61586.06;5004179;28;20356;-79
2022/09/06 11:10:13;;;;;;;;;;;;;;;104.25;100.00;61586.06;5002704;28;19973;-78
2022/09/06 11:13:05;;;;;;;4.10;3.20;;;;;;;-144.47;100.00;61586.06;5001120;28;20404;-79
2022/09/06 11:15:41;;;;;;;8.88;3.60;;;;;;;-144.47;100.00;61586.06;5003026;28;20465;-78
2022/09/06 11:18:12;;;;;;;;;;;;;;;-144.47;100.00;61586.06;5002727;28;20042;-78
2022/09/06 11:20:43;;;;;;;;;;;;;;;-144.47;100.00;61586.06;5001643;28;20067;-78